• Join FlightAware (Why Join?)
  • Login
  • US Flag 
02:50PM EDT


 

Airport Tracker/Info


-or-


 

Live Flight TrackerFlight Track Log ✈ EJA646 ✈ 27-May-2013 ✈ KCHS - KBED

Flight Track Log - Related Links

Times and Time Zones

All times are in EDT time to prevent confusion due to time zone crossing. See the EJA646 flight status page for this flight to view local times or setup timezone preferences in your user account.

Time Position Orientation Groundspeed Altitude Reporting Facility
EDT Latitude Longitude Course Direction KTS MPH feet Rate Location/Type
06:16PM 32.8639 -79.9917 51° Northeast 231 266 3,700  Level Jacksonville Center
06:17PM 32.8958 -79.9311 58° Northeast 237 273 3,900 1,260 Climbing Jacksonville Center
06:18PM 32.9275 -79.8583 63° Northeast 237 273 6,300 2,520 Climbing Jacksonville Center
06:19PM 32.9739 -79.7850 53° Northeast 249 287 9,000 2,640 Climbing Jacksonville Center
06:20PM 33.0219 -79.7067 54° Northeast 272 313 11,600 2,520 Climbing Jacksonville Center
06:21PM 33.1976 -79.3703 51° Northeast  Level FlightAware Approximate
06:21PM 33.0678 -79.6208 57° Northeast 283 326 14,100  Level Jacksonville Center
06:22PM 33.1222 -79.5444 50° Northeast 295 339 16,600 2,100 Climbing Jacksonville Center
06:23PM 33.1978 -79.4819 35° Northeast 303 349 18,400 1,860 Climbing Jacksonville Center
06:24PM 33.2692 -79.4219 35° Northeast 331 381 20,400 1,920 Climbing Jacksonville Center
06:25PM 33.3486 -79.3519 36° Northeast 342 394 22,300 1,860 Climbing Jacksonville Center
06:26PM 33.4300 -79.2839 35° Northeast 352 405 24,200 1,740 Climbing Jacksonville Center
06:27PM 33.4747 -79.1725 64° Northeast 341 392 25,800 1,500 Climbing Jacksonville Center
06:28PM 33.5211 -79.0486 66° East 355 409 27,300 1,500 Climbing Jacksonville Center
06:29PM 33.6064 -78.9700 38° Northeast 364 419 28,800 1,380 Climbing Jacksonville Center
06:30PM 33.6981 -78.9011 32° Northeast 370 426 30,100 1,200 Climbing Jacksonville Center
06:31PM 33.8411 -78.7919 32° Northeast 399 459 31,900 1,260 Climbing Washington Center
06:32PM 33.9328 -78.7181 34° Northeast 399 459 33,400 1,320 Climbing Washington Center
06:33PM 34.0244 -78.6486 32° Northeast 399 459 34,600 780 Climbing Washington Center
06:34PM 34.1139 -78.5767 34° Northeast 394 453 35,000 180 Climbing Washington Center
06:35PM 34.2136 -78.5000 32° Northeast 399 459 35,000  Level Washington Center
06:36PM 34.3158 -78.4206 33° Northeast 413 475 35,000  Level Washington Center
06:37PM 34.4050 -78.3483 34° Northeast 420 483 35,000  Level Washington Center
06:38PM 34.5050 -78.2658 34° Northeast 425 489 35,000  Level Washington Center
06:39PM 34.6069 -78.1861 33° Northeast 430 495 35,000  Level Washington Center
06:40PM 34.6983 -78.1031 37° Northeast 424 488 35,000  Level Washington Center
06:41PM 34.7694 -77.9939 52° Northeast 410 472 35,000  Level Washington Center
06:42PM 34.8364 -77.8794 55° Northeast 410 472 35,000 780 Level Washington Center
06:43PM 34.9072 -77.7725 51° Northeast 415 478 36,600 1,620 Climbing Washington Center
06:44PM 34.9694 -77.6703 53° Northeast 388 447 38,300 1,140 Climbing Washington Center
06:45PM 35.0544 -77.5939 36° Northeast 371 427 39,000 300 Climbing Washington Center
06:46PM 35.1492 -77.5328 28° Northeast 371 427 39,000  Level Washington Center
06:47PM 35.2483 -77.4664 29° Northeast 383 441 39,000  Level Washington Center
06:48PM 35.3411 -77.4050 28° Northeast 383 441 39,000  Level Washington Center
06:49PM 35.4339 -77.3383 30° Northeast 383 441 39,000  Level Washington Center
06:50PM 35.5286 -77.2739 29° Northeast 383 441 39,000  Level Washington Center
06:51PM 35.6236 -77.2069 30° Northeast 383 441 39,000  Level Washington Center
06:52PM 35.7203 -77.1425 28° Northeast 383 441 39,000  Level Washington Center
06:53PM 35.8153 -77.0700 32° Northeast 369 425 39,000  Level Washington Center
06:54PM 35.9056 -77.0075 29° Northeast 369 425 39,000  Level Washington Center
06:55PM 36.0025 -76.9450 28° Northeast 374 430 39,000  Level Washington Center
06:56PM 36.0950 -76.8797 30° Northeast 380 437 39,000  Level Washington Center
06:57PM 36.1875 -76.8144 30° Northeast 380 437 39,000  Level Washington Center
06:58PM 36.2797 -76.7514 29° Northeast 380 437 39,000  Level Washington Center
06:59PM 36.3722 -76.6858 30° Northeast 380 437 39,000  Level Washington Center
07:00PM 36.4667 -76.6225 28° Northeast 380 437 39,000  Level Washington Center
07:01PM 36.5589 -76.5564 30° Northeast 380 437 39,000  Level Washington Center
07:02PM 36.6472 -76.4928 30° Northeast 380 437 39,000  Level Washington Center
07:03PM 36.7394 -76.4239 31° Northeast 380 437 39,000  Level Washington Center
07:04PM 36.8317 -76.3575 30° Northeast 385 443 39,000  Level Washington Center
07:05PM 36.9239 -76.2933 29° Northeast 380 437 39,000  Level Washington Center
07:06PM 37.0161 -76.2239 31° Northeast 380 437 39,000  Level Washington Center
07:07PM 37.1103 -76.1597 29° Northeast 380 437 39,000  Level Washington Center
07:08PM 37.1958 -76.1028 28° Northeast 380 437 39,000  Level Washington Center
07:09PM 37.2858 -76.0253 34° Northeast 380 437 39,000  Level Washington Center
07:10PM 37.3697 -75.9419 38° Northeast 380 437 39,000  Level Washington Center
07:11PM 37.4553 -75.8586 38° Northeast 380 437 39,000  Level Washington Center
07:12PM 37.5411 -75.7803 36° Northeast 386 444 39,000  Level Washington Center
07:13PM 37.6267 -75.6942 39° Northeast 386 444 39,000  Level Washington Center
07:14PM 37.7122 -75.6128 37° Northeast 386 444 39,000  Level Washington Center
07:15PM 37.7997 -75.5314 36° Northeast 386 444 39,000  Level Washington Center
07:16PM 37.8831 -75.4497 38° Northeast 386 444 39,000  Level Washington Center
07:17PM 37.9686 -75.3678 37° Northeast 386 444 39,000  Level Washington Center
07:18PM 38.0517 -75.2858 38° Northeast 386 444 39,000  Level Washington Center
07:19PM 38.1369 -75.2011 38° Northeast 386 444 39,000  Level Washington Center
07:20PM 38.2222 -75.1239 35° Northeast 386 444 39,000  Level Washington Center
07:21PM 38.3033 -75.0442 38° Northeast 381 438 39,000  Level Washington Center
07:22PM 38.3842 -74.9533 41° Northeast 381 438 39,000  Level Washington Center
07:23PM 38.4650 -74.8678 40° Northeast 375 432 39,000  Level Washington Center
07:24PM 38.5478 -74.7872 37° Northeast 375 432 39,000  Level Washington Center
07:25PM 38.6286 -74.7094 37° Northeast 368 423 39,000  Level Washington Center
07:26PM 38.7092 -74.6258 39° Northeast 368 423 39,000  Level Washington Center
07:27PM 38.7939 -74.5369 39° Northeast 368 423 39,000  Level Washington Center
07:28PM 38.8725 -74.4639 36° Northeast 368 423 39,000  Level Washington Center
07:29PM 38.9528 -74.3797 39° Northeast 368 423 39,000  Level Washington Center
07:30PM 39.0333 -74.2983 38° Northeast 368 423 39,000  Level Washington Center
07:31PM 39.1158 -74.2167 38° Northeast 368 423 39,000  Level Washington Center
07:33PM 39.2800 -74.0503 38° Northeast 367 422 39,000  Level Boston Center
07:34PM 39.3603 -73.9664 39° Northeast 373 429 39,000  Level Boston Center
07:35PM 39.4428 -73.8825 38° Northeast 373 429 39,000  Level Boston Center
07:36PM 39.5228 -73.7928 41° Northeast 373 429 39,000  Level Boston Center
07:37PM 39.6008 -73.7136 38° Northeast 378 435 39,000  Level Boston Center
07:38PM 39.6853 -73.6289 38° Northeast 378 435 39,000  Level Boston Center
07:39PM 39.7672 -73.5414 39° Northeast 378 435 39,000 -60 Level Boston Center
07:40PM 39.8514 -73.4536 39° Northeast 378 435 38,900 -600 Descending Boston Center
07:41PM 39.9314 -73.3681 39° Northeast 373 429 37,900 -960 Descending Boston Center
07:42PM 40.0175 -73.2825 37° Northeast 373 429 37,000 -960 Descending Boston Center
07:43PM 40.1078 -73.1917 38° Northeast 384 442 36,000 -1,020 Descending Boston Center
07:44PM 40.1958 -73.0975 39° Northeast 401 461 35,000 -1,380 Descending Boston Center
07:45PM 40.2900 -73.0222 31° Northeast 406 467 33,300 -1,800 Descending Boston Center
07:46PM 40.3922 -72.9933 12° North 379 436 31,400 -1,920 Descending Boston Center
07:47PM 40.4986 -72.9722 North 372 428 29,500 -1,800 Descending Boston Center
07:48PM 40.6111 -72.9539 North 384 442 27,900 -1,680 Descending Boston Center
07:49PM 40.7092 -72.9328 North 379 436 26,200 -1,740 Descending Boston Center
07:51PM 40.8808 -72.7611 37° Northeast 362 417 22,800 -1,680 Descending Boston Center
07:52PM 40.9642 -72.6819 36° Northeast 368 423 21,200 -1,620 Descending Boston Center
07:53PM 41.0394 -72.5914 42° Northeast 368 423 19,600 -1,620 Descending Boston Center
07:54PM 41.1186 -72.5033 40° Northeast 363 418 18,000 -1,320 Descending Boston Center
07:55PM 41.1917 -72.4181 41° Northeast 358 412 17,000 -540 Descending Boston Center
07:56PM 41.2686 -72.3297 41° Northeast 358 412 17,000  Level Boston Center
07:57PM 41.3436 -72.2467 40° Northeast 353 406 17,000  Level Boston Center
07:58PM 41.4164 -72.1633 41° Northeast 353 406 17,000  Level Boston Center
07:59PM 41.4911 -72.0769 41° Northeast 353 406 17,000 -300 Level Boston Center
08:00PM 41.5681 -72.0072 34° Northeast 348 400 16,400 -1,020 Descending Boston Center
08:01PM 41.6556 -72.0067 360° North 314 361 15,000 -1,440 Descending Boston Center
08:02PM 41.7453 -72.0117 358° North 314 361 13,600 -1,500 Descending Boston Center
08:03PM 41.8203 -72.0194 356° North 313 360 12,200 -1,320 Descending Boston Center
08:04PM 41.9058 -72.0244 358° North 310 357 11,100 -1,020 Descending Boston Center
08:05PM 41.9892 -72.0267 359° North 305 351 10,200 -840 Descending Boston Center
08:06PM 42.0744 -72.0317 358° North 284 327 9,400 -900 Descending Boston Center
08:07PM 42.1389 -71.9867 27° Northeast 272 313 8,400 -1,020 Descending Boston Center
08:08PM 42.2033 -71.9356 30° Northeast 261 300 7,400 -1,080 Descending Boston Center
08:09PM 42.2572 -71.8736 40° Northeast 267 307 6,200 -1,200 Descending Boston Center
08:10PM 42.3172 -71.8000 42° Northeast 267 307 5,100 -600 Descending Boston Center
08:11PM 42.3669 -71.7375 43° Northeast 267 307 5,000 -240 Descending Boston Center
08:12PM 42.4247 -71.6553 46° Northeast 267 307 4,700 -540 Descending Boston Center
08:13PM 42.4500 -71.6167 48° Northeast 267 307 4,200 -1,020 Descending KA90
08:14PM 42.5000 -71.5500 44° Northeast 261 300 3,300 -660 Descending KA90
08:15PM 42.5167 -71.4667 75° East 250 288 3,000 -540 Descending KA90
08:16PM 42.5167 -71.3833 90° East 228 262 2,300 -660 Descending KA90
08:17PM 42.5000 -71.2833 103° East 201 231 1,700 -300 Descending KA90
08:18PM 42.5000 -71.2333 90° East 161 185 1,700 -420 Level KA90
08:19PM 42.4667 -71.2333 180° South 142 163 900 -780 Descending KA90